createdAt,value
2023-01-29T01:31:01.303Z,-1.2
2023-01-29T01:36:49.768Z,-1.1
2023-01-29T01:42:39.509Z,-1.4
2023-01-29T01:48:30.827Z,-1.3
2023-01-29T01:54:21.044Z,-1.4
2023-01-29T02:00:10.993Z,-1.6
2023-01-29T02:06:05.150Z,-1.4
2023-01-29T02:11:55.344Z,-1.5
2023-01-29T02:17:46.973Z,-1.4
2023-01-29T02:23:36.798Z,-1.5
2023-01-29T02:29:28.667Z,-1.3
2023-01-29T02:35:18.729Z,-1.4
2023-01-29T02:41:08.764Z,-1.5
2023-01-29T02:47:00.588Z,-1.8
2023-01-29T02:52:50.744Z,-1.5
2023-01-29T02:58:41.664Z,-1.7
2023-01-29T03:04:33.168Z,-1.8
2023-01-29T03:10:23.738Z,-1.8
2023-01-29T03:16:13.584Z,-1.9
2023-01-29T03:22:04.215Z,-1.8
2023-01-29T03:27:54.621Z,-1.9
2023-01-29T03:33:44.770Z,-1.8
2023-01-29T03:39:36.605Z,-1.7
2023-01-29T03:45:26.274Z,-1.8
2023-01-29T03:51:17.229Z,-1.9
2023-01-29T03:57:07.640Z,-1.5
2023-01-29T04:02:58.403Z,-1.5
2023-01-29T04:08:50.707Z,-1.6
2023-01-29T04:14:40.465Z,-1.8
2023-01-29T04:20:31.533Z,-1.6
2023-01-29T04:26:21.343Z,-1.7
2023-01-29T04:32:11.497Z,-2
2023-01-29T04:38:00.083Z,-2.3
2023-01-29T04:43:50.154Z,-1.6
2023-01-29T04:49:40.414Z,-1.5
2023-01-29T04:55:31.441Z,-1.6
2023-01-29T05:01:22.568Z,-1.5
2023-01-29T05:08:21.299Z,-1.6
2023-01-29T05:14:10.728Z,-1.6
2023-01-29T05:20:00.309Z,-1.5
2023-01-29T05:25:50.744Z,-1.4
2023-01-29T05:31:41.472Z,-1.3
2023-01-29T05:37:32.396Z,-1.3
2023-01-29T05:43:24.332Z,-1.4
2023-01-29T05:49:15.188Z,-1.4
2023-01-29T05:55:02.850Z,-1.2
2023-01-29T06:00:53.371Z,-1.3
2023-01-29T06:06:43.213Z,-1.4
2023-01-29T06:12:33.007Z,-1.4
2023-01-29T06:18:23.174Z,-1.4
2023-01-29T06:24:13.404Z,-1.2
2023-01-29T06:30:04.205Z,-1.3
2023-01-29T06:35:55.231Z,-1.1
2023-01-29T06:41:46.035Z,-1.3
2023-01-29T06:47:35.398Z,-1.3
2023-01-29T06:53:25.851Z,-1.7
2023-01-29T06:59:17.244Z,-1.6
2023-01-29T07:05:08.861Z,-1.8
2023-01-29T07:10:59.035Z,-1.9
2023-01-29T07:16:50.337Z,-1.7
2023-01-29T07:22:40.460Z,-1.4
2023-01-29T07:28:31.149Z,-1.8
2023-01-29T07:34:25.485Z,-1.5
2023-01-29T07:40:16.418Z,-1.4
2023-01-29T07:47:24.381Z,-1.3
2023-01-29T07:53:16.591Z,-1.3
2023-01-29T07:59:17.439Z,-1.2
2023-01-29T08:05:16.336Z,-1
2023-01-29T08:17:58.796Z,-0.9
2023-01-29T08:24:05.412Z,-0.7
2023-01-29T08:30:35.963Z,-0.7
2023-01-29T08:36:30.719Z,-0.7
2023-01-29T08:42:22.757Z,-0.6
2023-01-29T08:48:16.355Z,-0.6
2023-01-29T09:00:29.758Z,-0.3
2023-01-29T09:06:24.597Z,-0.4
2023-01-29T09:12:22.256Z,-0.4
2023-01-29T09:24:44.349Z,-0.2
2023-01-29T09:30:43.177Z,-0.2
2023-01-29T09:37:14.219Z,0
2023-01-29T09:55:38.018Z,0.1
2023-01-29T10:01:29.211Z,0.3
2023-01-29T10:13:40.278Z,0.4
2023-01-29T10:19:39.048Z,0.5
2023-01-29T10:26:05.170Z,0.6
2023-01-29T10:32:21.005Z,0.7
2023-01-29T10:38:16.700Z,0.8
2023-01-29T10:44:19.469Z,0.9
2023-01-29T10:50:29.192Z,1.1
2023-01-29T10:56:30.991Z,1
2023-01-29T11:15:00.641Z,1.4
2023-01-29T11:20:54.388Z,1.6
2023-01-29T11:39:49.878Z,1.9
2023-01-29T11:45:54.749Z,1.7
2023-01-29T11:58:05.540Z,2
2023-01-29T12:22:33.407Z,2.2
2023-01-29T12:28:23.504Z,2.4
2023-01-29T12:34:14.802Z,2.5
2023-01-29T12:40:07.945Z,2.2
2023-01-29T12:46:00.236Z,2.2
2023-01-29T12:51:51.105Z,2.2
2023-01-29T12:57:42.118Z,2.5
2023-01-29T13:03:32.494Z,2.3
2023-01-29T13:09:24.812Z,2.5
2023-01-29T13:15:15.829Z,2.6
2023-01-29T13:21:12.054Z,2.6
2023-01-29T13:27:02.516Z,2.8
2023-01-29T13:32:58.229Z,2.8
2023-01-29T13:39:02.875Z,3
2023-01-29T13:44:54.421Z,3
2023-01-29T13:50:46.738Z,3
2023-01-29T13:56:37.490Z,2.8
2023-01-29T14:02:30.785Z,3.2
2023-01-29T14:08:22.686Z,3.1
2023-01-29T14:14:14.555Z,3.1
2023-01-29T14:20:06.106Z,3.1
2023-01-29T14:25:59.785Z,3.1
2023-01-29T14:31:50.294Z,3
2023-01-29T14:38:51.151Z,3
2023-01-29T14:44:41.144Z,3.1
2023-01-29T14:50:31.522Z,3
2023-01-29T14:56:22.845Z,3
2023-01-29T15:02:13.189Z,3
2023-01-29T15:08:13.857Z,3.1
2023-01-29T15:14:06.036Z,3.1
2023-01-29T15:19:55.756Z,2.8
2023-01-29T15:25:46.834Z,2.9
2023-01-29T15:31:38.179Z,2.8
2023-01-29T15:37:32.447Z,2.8
2023-01-29T15:43:25.562Z,2.8
2023-01-29T15:49:16.249Z,2.9
2023-01-29T15:55:05.162Z,2.9
2023-01-29T16:00:54.286Z,3
2023-01-29T16:06:44.005Z,2.9
2023-01-29T16:12:32.701Z,2.8
2023-01-29T16:18:21.181Z,2.8
2023-01-29T16:24:09.865Z,2.6
2023-01-29T16:31:07.788Z,2.7
2023-01-29T16:36:55.578Z,2.7
2023-01-29T16:42:43.877Z,2.5
2023-01-29T16:48:32.914Z,2.4
2023-01-29T16:54:21.732Z,2.4
2023-01-29T17:00:10.308Z,2.5
2023-01-29T17:05:59.028Z,2.4
2023-01-29T17:11:47.744Z,2.3
2023-01-29T17:17:36.589Z,2.2
2023-01-29T17:23:25.353Z,2.3
2023-01-29T17:29:16.940Z,2.3
2023-01-29T17:35:05.657Z,2.3
2023-01-29T17:40:54.464Z,2.2
2023-01-29T17:46:43.759Z,2.2
2023-01-29T17:52:32.398Z,1.9
2023-01-29T17:58:21.170Z,2
2023-01-29T18:04:09.699Z,2
2023-01-29T18:09:59.073Z,1.9
2023-01-29T18:15:47.664Z,1.9
2023-01-29T18:21:38.266Z,1.9
2023-01-29T18:27:28.500Z,2
2023-01-29T18:33:18.808Z,2
2023-01-29T18:39:09.896Z,2.1
2023-01-29T18:45:00.425Z,2
2023-01-29T18:50:49.964Z,2
2023-01-29T18:57:11.623Z,2
2023-01-29T19:04:19.491Z,2
2023-01-29T19:10:07.799Z,2.1
2023-01-29T19:15:56.216Z,2
2023-01-29T19:21:44.449Z,2
2023-01-29T19:27:32.511Z,2
2023-01-29T19:33:22.187Z,2
2023-01-29T19:39:10.399Z,2
2023-01-29T19:44:59.189Z,2.2
2023-01-29T19:50:49.093Z,2
2023-01-29T19:56:42.933Z,2
2023-01-29T20:02:35.896Z,2
2023-01-29T20:08:25.767Z,2
2023-01-29T20:14:17.463Z,2
2023-01-29T20:20:07.703Z,1.9
2023-01-29T20:25:57.894Z,2.1
2023-01-29T20:31:50.384Z,2
2023-01-29T20:37:43.464Z,2
2023-01-29T20:43:33.374Z,2
2023-01-29T20:49:30.399Z,2.1
2023-01-29T20:55:20.434Z,2.2
2023-01-29T21:01:11.973Z,2.2
2023-01-29T21:07:03.285Z,2.2
2023-01-29T21:12:54.236Z,2.2
2023-01-29T21:18:44.655Z,2.3
2023-01-29T21:24:36.831Z,2.3
2023-01-29T21:30:26.792Z,2.3
2023-01-29T21:36:16.766Z,2.3
2023-01-29T21:42:08.264Z,2.4
2023-01-29T21:48:00.267Z,2.5
2023-01-29T21:53:50.368Z,2.4
2023-01-29T21:59:40.373Z,2.4
2023-01-29T22:05:36.840Z,2.4
2023-01-29T22:11:26.759Z,2.5
2023-01-29T22:17:17.561Z,2.5
2023-01-29T22:23:06.407Z,2.5
2023-01-29T22:28:56.734Z,2.5
2023-01-29T22:34:47.043Z,2.5
2023-01-29T22:40:36.888Z,2.5
2023-01-29T22:46:27.668Z,2.5
2023-01-29T22:52:18.967Z,2.6
2023-01-29T22:58:09.926Z,2.6
2023-01-29T23:03:59.600Z,2.6
2023-01-29T23:09:50.432Z,2.6
2023-01-29T23:15:41.960Z,2.6
2023-01-29T23:21:32.487Z,2.6
2023-01-29T23:27:23.294Z,2.6
2023-01-29T23:33:13.868Z,2.7
2023-01-29T23:39:04.530Z,2.7
2023-01-29T23:44:55.314Z,2.7
2023-01-29T23:50:45.509Z,2.7
2023-01-29T23:56:43.825Z,2.8
